Time;durP1;ratioP1;P1;durP2;ratioP2;P2;SDS_P1;SDS_P2;PMS_P1;PMS_P2;Temp;Humidity;BMP_temperature;BMP_pressure;BME280_temperature;BME280_humidity;BME280_pressure;Samples;Min_cycle;Max_cycle;Signal;HPM_P1;HPM_P2
2023/05/11 00:01:32;;;;;;;2.60;1.55;;;18.20;76.70;;;;;;6216479;23;20000;-75
2023/05/11 00:03:58;;;;;;;4.20;1.90;;;18.10;76.80;;;;;;6214370;23;20459;-75
2023/05/11 00:06:24;;;;;;;3.38;2.25;;;18.20;76.80;;;;;;6215931;23;20071;-75
2023/05/11 00:08:49;;;;;;;2.67;1.63;;;18.20;76.70;;;;;;6216037;23;19996;-75
2023/05/11 00:11:17;;;;;;;2.30;1.63;;;18.20;76.90;;;;;;6216025;23;20007;-75
2023/05/11 00:13:43;;;;;;;2.95;1.70;;;18.20;76.90;;;;;;6216284;23;20027;-75
2023/05/11 00:16:09;;;;;;;3.33;1.90;;;18.10;76.80;;;;;;6214686;23;20001;-75
2023/05/11 00:18:35;;;;;;;3.35;1.88;;;18.10;76.90;;;;;;6214412;23;20008;-75
2023/05/11 00:21:01;;;;;;;3.08;1.80;;;18.10;77.00;;;;;;6214404;23;20122;-75
2023/05/11 00:23:26;;;;;;;2.05;1.60;;;18.10;77.00;;;;;;6214484;23;20005;-75
2023/05/11 00:25:52;;;;;;;3.67;1.98;;;18.20;77.10;;;;;;6189439;23;20318;-75
2023/05/11 00:28:18;;;;;;;3.15;1.80;;;18.10;76.90;;;;;;6214458;23;20005;-75
2023/05/11 00:30:44;;;;;;;4.60;1.77;;;18.20;77.00;;;;;;6215910;23;20030;-75
2023/05/11 00:33:10;;;;;;;1.70;1.38;;;18.10;77.00;;;;;;6189367;23;20417;-75
2023/05/11 00:35:35;;;;;;;2.50;1.60;;;18.10;77.00;;;;;;6214651;23;20001;-75
2023/05/11 00:38:01;;;;;;;2.63;1.70;;;18.10;77.10;;;;;;6214208;23;20011;-75
2023/05/11 00:40:27;;;;;;;3.78;1.98;;;18.10;77.00;;;;;;6214307;23;20320;-75
2023/05/11 00:42:52;;;;;;;4.68;1.90;;;18.10;77.00;;;;;;6214548;23;19997;-75
2023/05/11 00:45:18;;;;;;;2.67;1.50;;;18.10;77.00;;;;;;6214411;23;20001;-75
2023/05/11 00:47:44;;;;;;;4.35;1.88;;;18.10;77.00;;;;;;6215817;23;20005;-75
2023/05/11 00:50:10;;;;;;;3.22;1.63;;;18.10;77.10;;;;;;6189382;23;20001;-75
2023/05/11 00:52:35;;;;;;;2.90;1.60;;;18.10;77.00;;;;;;6215608;23;20172;-75
2023/05/11 00:55:01;;;;;;;3.83;1.42;;;18.10;77.10;;;;;;6214194;23;20452;-75
2023/05/11 00:57:27;;;;;;;2.15;1.63;;;18.10;77.00;;;;;;6215768;23;20004;-75
2023/05/11 00:59:52;;;;;;;3.08;1.60;;;18.10;77.20;;;;;;6214085;23;19997;-75
2023/05/11 01:02:18;;;;;;;2.63;1.75;;;18.10;77.20;;;;;;6213939;23;20400;-75
2023/05/11 01:04:44;;;;;;;2.80;1.88;;;18.10;77.20;;;;;;6214241;23;20445;-75
2023/05/11 01:07:12;;;;;;;5.25;2.10;;;18.10;77.20;;;;;;6188685;23;20049;-75
2023/05/11 01:10:00;;;;;;;4.25;1.70;;;18.10;77.30;;;;;;6214301;23;20083;-75
2023/05/11 01:12:56;;;;;;;2.85;1.85;;;18.10;77.30;;;;;;6213902;23;20310;-75
2023/05/11 01:15:35;;;;;;;2.00;1.52;;;18.10;77.30;;;;;;6214103;23;20020;-76
2023/05/11 01:18:39;;;;;;;2.38;1.58;;;18.10;77.30;;;;;;6189655;23;20031;-76
2023/05/11 01:21:05;;;;;;;3.35;1.45;;;18.10;77.30;;;;;;6191957;23;20460;-75
2023/05/11 01:24:08;;;;;;;4.45;1.67;;;18.10;77.40;;;;;;6189124;23;19996;-75
2023/05/11 01:26:43;;;;;;;5.82;1.60;;;18.10;77.50;;;;;;6215483;23;19997;-76
2023/05/11 01:29:20;;;;;;;3.20;1.63;;;18.10;77.50;;;;;;6215197;23;20091;-76
2023/05/11 01:31:46;;;;;;;2.08;1.52;;;18.00;77.50;;;;;;6215289;23;20000;-75
2023/05/11 01:34:27;;;;;;;2.72;1.40;;;18.00;77.50;;;;;;6188804;23;20532;-75
2023/05/11 01:36:58;;;;;;;4.72;1.80;;;18.10;77.50;;;;;;6213960;23;20055;-75
2023/05/11 01:39:32;;;;;;;2.53;1.48;;;18.00;77.50;;;;;;6189628;23;20004;-75
2023/05/11 01:41:57;;;;;;;3.72;1.50;;;18.10;77.60;;;;;;6213657;23;20472;-75
2023/05/11 01:44:24;;;;;;;3.72;1.88;;;18.00;77.60;;;;;;6213867;23;19997;-75
2023/05/11 01:46:50;;;;;;;3.67;1.75;;;18.00;77.60;;;;;;6189345;23;20023;-75
2023/05/11 01:49:15;;;;;;;3.92;1.65;;;18.00;77.60;;;;;;6213443;23;20001;-75
2023/05/11 01:51:41;;;;;;;1.98;1.40;;;18.00;77.60;;;;;;6188587;23;20004;-75
2023/05/11 01:54:07;;;;;;;3.08;1.52;;;18.00;77.70;;;;;;6215119;23;20004;-75
2023/05/11 01:56:33;;;;;;;4.50;1.75;;;18.00;77.70;;;;;;6213678;23;20508;-76
2023/05/11 01:58:58;;;;;;;2.47;1.40;;;18.00;77.80;;;;;;6188566;23;20039;-76
2023/05/11 02:01:24;;;;;;;3.00;1.52;;;18.00;77.80;;;;;;6213373;23;20001;-76
2023/05/11 02:03:50;;;;;;;3.08;1.60;;;18.00;77.90;;;;;;6188251;23;19997;-75
2023/05/11 02:06:16;;;;;;;2.55;1.50;;;18.00;77.80;;;;;;6188277;23;20060;-75
2023/05/11 02:08:42;;;;;;;1.85;1.38;;;18.00;77.80;;;;;;6213705;23;20445;-75
2023/05/11 02:11:08;;;;;;;3.50;1.30;;;18.00;77.90;;;;;;6213412;23;20011;-75
2023/05/11 02:13:34;;;;;;;3.65;1.45;;;18.10;78.00;;;;;;6163284;23;20004;-75
2023/05/11 02:15:59;;;;;;;2.45;1.38;;;18.00;77.90;;;;;;6188562;23;20007;-75
2023/05/11 02:18:25;;;;;;;2.78;1.77;;;18.00;77.90;;;;;;6214472;23;20076;-75
2023/05/11 02:20:51;;;;;;;1.73;1.63;;;18.00;78.00;;;;;;6213438;23;20007;-75
2023/05/11 02:23:16;;;;;;;2.65;1.42;;;18.00;77.90;;;;;;6213354;23;20015;-75
2023/05/11 02:25:42;;;;;;;2.85;1.40;;;18.00;78.00;;;;;;6188471;23;20433;-76
2023/05/11 02:28:08;;;;;;;2.05;1.55;;;18.00;78.00;;;;;;6188287;23;20323;-75
2023/05/11 02:30:37;;;;;;;3.58;1.50;;;18.00;78.00;;;;;;6213300;23;20001;-75
2023/05/11 02:33:05;;;;;;;2.55;1.40;;;18.00;78.00;;;;;;6188993;23;20028;-75
2023/05/11 02:35:34;;;;;;;1.48;1.30;;;18.00;78.00;;;;;;6213191;23;20004;-75
2023/05/11 02:38:00;;;;;;;2.58;1.70;;;18.00;78.20;;;;;;6213323;23;20061;-75
2023/05/11 02:40:33;;;;;;;2.55;1.40;;;18.00;78.00;;;;;;6213142;23;19996;-75
2023/05/11 02:43:09;;;;;;;;;;;18.00;78.10;;;;;;6213796;23;20001;-75
2023/05/11 02:45:35;;;;;;;1.50;1.27;;;18.00;78.00;;;;;;6213343;23;19946;-75
2023/05/11 02:48:05;;;;;;;3.13;1.30;;;18.00;78.20;;;;;;6188132;23;20032;-75
2023/05/11 02:50:30;;;;;;;3.70;1.83;;;18.00;78.10;;;;;;6213130;23;20036;-75
2023/05/11 02:52:58;;;;;;;2.38;1.60;;;18.00;78.20;;;;;;6213303;23;20056;-75
2023/05/11 02:55:24;;;;;;;2.00;1.77;;;18.00;78.10;;;;;;6188306;23;20059;-75
2023/05/11 02:57:50;;;;;;;1.42;1.30;;;18.00;78.20;;;;;;6188214;23;20007;-76
2023/05/11 03:00:16;;;;;;;2.20;1.17;;;18.00;78.20;;;;;;6213222;23;20000;-75
2023/05/11 03:02:42;;;;;;;4.13;1.63;;;18.00;78.30;;;;;;6214458;23;20058;-75
2023/05/11 03:05:07;;;;;;;2.25;1.30;;;18.00;78.30;;;;;;6213078;23;20004;-75
2023/05/11 03:07:33;;;;;;;2.80;1.45;;;18.00;78.30;;;;;;6214384;23;20021;-75
2023/05/11 03:10:00;;;;;;;3.95;1.50;;;17.90;78.30;;;;;;6188256;23;20031;-75
2023/05/11 03:12:30;;;;;;;2.97;1.33;;;17.90;78.30;;;;;;6214361;23;20083;-75
2023/05/11 03:14:57;;;;;;;2.40;1.40;;;18.00;78.40;;;;;;6189375;23;20005;-75
2023/05/11 03:17:22;;;;;;;1.70;1.25;;;17.90;78.50;;;;;;6212734;23;20076;-75
2023/05/11 03:19:48;;;;;;;3.42;1.77;;;17.90;78.40;;;;;;6188197;23;20024;-75
2023/05/11 03:22:14;;;;;;;2.42;1.55;;;17.90;78.50;;;;;;6213034;23;20449;-75
2023/05/11 03:24:39;;;;;;;1.70;1.30;;;17.90;78.50;;;;;;6214073;23;20004;-75
2023/05/11 03:27:05;;;;;;;3.25;1.30;;;18.00;78.60;;;;;;6190168;23;20341;-75
2023/05/11 03:29:31;;;;;;;1.80;1.52;;;17.90;78.60;;;;;;6190010;23;20025;-75
2023/05/11 03:31:56;;;;;;;3.35;1.60;;;17.90;78.70;;;;;;6189734;23;20005;-75
2023/05/11 03:34:22;;;;;;;3.00;1.50;;;17.90;78.70;;;;;;6214976;23;20000;-75
2023/05/11 03:36:48;;;;;;;1.90;1.38;;;18.00;78.70;;;;;;6216926;23;20008;-75
2023/05/11 03:39:14;;;;;;;2.35;1.38;;;17.90;79.70;;;;;;6189875;23;20008;-75
2023/05/11 03:41:40;;;;;;;5.28;1.60;;;17.90;78.80;;;;;;6214864;23;20376;-75
2023/05/11 03:44:06;;;;;;;2.25;1.40;;;18.00;78.80;;;;;;6215042;23;20075;-75
2023/05/11 03:46:31;;;;;;;4.18;2.00;;;17.90;78.80;;;;;;6214718;23;20043;-75
2023/05/11 03:48:57;;;;;;;2.53;1.42;;;17.90;78.80;;;;;;6214913;23;20023;-75
2023/05/11 03:51:22;;;;;;;2.13;1.20;;;17.90;78.80;;;;;;6189723;23;20005;-75
2023/05/11 03:53:48;;;;;;;2.83;1.33;;;18.00;78.90;;;;;;6214778;23;20012;-75
2023/05/11 03:56:14;;;;;;;1.63;1.30;;;18.00;78.90;;;;;;6214777;23;20004;-75
2023/05/11 03:58:40;;;;;;;1.80;1.40;;;17.90;78.90;;;;;;6189935;23;20453;-75
2023/05/11 04:01:07;;;;;;;2.65;1.65;;;17.90;78.90;;;;;;6215751;23;20029;-75
2023/05/11 04:03:32;;;;;;;1.77;1.15;;;17.90;79.00;;;;;;6216165;23;20000;-76
2023/05/11 04:05:58;;;;;;;2.22;1.25;;;17.90;79.00;;;;;;6189468;23;20075;-76
2023/05/11 04:08:24;;;;;;;3.05;1.50;;;17.90;79.00;;;;;;6214292;23;20407;-75
2023/05/11 04:10:49;;;;;;;10.15;1.65;;;17.90;79.00;;;;;;6214890;23;20075;-75
2023/05/11 04:13:15;;;;;;;2.55;1.35;;;17.90;79.00;;;;;;6215646;23;20449;-75
2023/05/11 04:15:40;;;;;;;5.03;1.70;;;17.90;79.60;;;;;;6216063;23;20337;-75
2023/05/11 04:18:06;;;;;;;3.65;1.50;;;17.90;79.00;;;;;;6214644;23;20007;-75
2023/05/11 04:20:32;;;;;;;1.80;1.33;;;17.90;79.20;;;;;;6215661;23;20139;-74
2023/05/11 04:22:57;;;;;;;2.22;1.23;;;17.90;79.20;;;;;;6216184;23;20000;-75
2023/05/11 04:25:23;;;;;;;1.85;1.15;;;17.90;79.00;;;;;;6214586;23;20001;-75
2023/05/11 04:27:49;;;;;;;2.13;1.30;;;17.90;79.00;;;;;;6215630;23;20005;-75
2023/05/11 04:30:14;;;;;;;2.10;1.33;;;17.90;79.00;;;;;;6215966;23;20023;-75
2023/05/11 04:32:40;;;;;;;2.92;1.38;;;17.90;79.00;;;;;;6215980;23;20336;-75
2023/05/11 04:35:06;;;;;;;5.43;1.42;;;17.90;79.00;;;;;;6215648;23;20001;-74
2023/05/11 04:37:31;;;;;;;1.90;1.38;;;17.90;79.20;;;;;;6214205;23;20012;-74
2023/05/11 04:39:57;;;;;;;1.98;1.60;;;17.90;79.20;;;;;;6214336;23;20028;-74
2023/05/11 04:42:23;;;;;;;2.53;1.65;;;18.00;79.30;;;;;;6215368;23;20044;-74
2023/05/11 04:44:51;;;;;;;5.00;1.40;;;17.90;79.20;;;;;;6215889;23;20000;-74
2023/05/11 04:47:17;;;;;;;3.13;1.30;;;17.90;79.10;;;;;;6214304;23;20001;-74
2023/05/11 04:49:43;;;;;;;1.98;1.40;;;17.90;79.20;;;;;;6215774;23;20001;-74
2023/05/11 04:52:08;;;;;;;4.97;1.50;;;17.90;79.10;;;;;;6215844;23;20484;-74
2023/05/11 04:54:35;;;;;;;2.47;1.40;;;17.90;79.10;;;;;;6214103;23;20001;-74
2023/05/11 04:57:01;;;;;;;4.85;1.23;;;17.90;79.10;;;;;;6215450;23;20005;-74
2023/05/11 04:59:26;;;;;;;5.05;1.70;;;17.90;79.10;;;;;;6214117;23;20010;-74
2023/05/11 05:01:52;;;;;;;2.33;1.30;;;17.90;79.10;;;;;;6215589;23;20058;-74
2023/05/11 05:04:18;;;;;;;2.25;1.42;;;17.90;79.10;;;;;;6215625;23;20004;-74
2023/05/11 05:06:43;;;;;;;3.88;1.30;;;17.90;79.10;;;;;;6215441;23;20357;-75
2023/05/11 05:09:10;;;;;;;3.72;1.52;;;17.90;79.10;;;;;;6214153;23;20027;-74
2023/05/11 05:11:35;;;;;;;2.28;1.23;;;17.90;79.10;;;;;;6215359;23;20075;-74
2023/05/11 05:14:01;;;;;;;3.50;1.65;;;17.90;79.10;;;;;;6214110;23;20055;-74
2023/05/11 05:16:26;;;;;;;4.60;1.50;;;17.90;79.10;;;;;;6215527;23;20005;-74
2023/05/11 05:18:52;;;;;;;2.38;1.20;;;17.90;79.10;;;;;;6215784;23;20348;-74
2023/05/11 05:21:18;;;;;;;3.78;1.10;;;17.90;79.10;;;;;;6214009;23;20441;-74
2023/05/11 05:23:43;;;;;;;1.90;1.23;;;17.90;79.10;;;;;;6215408;23;19996;-74
2023/05/11 05:26:09;;;;;;;2.65;1.38;;;17.90;79.10;;;;;;6215261;23;20028;-74
2023/05/11 05:28:35;;;;;;;3.90;1.50;;;17.80;79.00;;;;;;6215260;23;20005;-74
2023/05/11 05:31:00;;;;;;;1.98;1.40;;;17.80;79.10;;;;;;6215340;23;20349;-75
2023/05/11 05:33:26;;;;;;;2.20;1.30;;;17.80;79.00;;;;;;6215411;23;20452;-74
2023/05/11 05:35:52;;;;;;;2.25;1.08;;;17.90;79.10;;;;;;6215234;23;20000;-74
2023/05/11 05:38:19;;;;;;;2.55;1.30;;;17.80;79.00;;;;;;6215418;23;20004;-74
2023/05/11 05:40:44;;;;;;;2.40;1.25;;;17.80;79.10;;;;;;6188568;23;20008;-74
2023/05/11 05:43:10;;;;;;;2.83;1.13;;;17.80;79.00;;;;;;6213646;23;20027;-74
2023/05/11 05:45:36;;;;;;;2.67;1.63;;;17.80;79.00;;;;;;6215367;23;20000;-74
2023/05/11 05:48:01;;;;;;;2.42;1.27;;;17.80;79.00;;;;;;6214285;23;20001;-74
2023/05/11 05:50:27;;;;;;;3.28;1.35;;;17.80;79.00;;;;;;6215642;23;20008;-74
2023/05/11 05:52:53;;;;;;;4.45;1.25;;;17.80;79.20;;;;;;6215854;23;20001;-74
2023/05/11 05:55:18;;;;;;;2.63;1.27;;;17.80;79.30;;;;;;6215349;23;20396;-74
2023/05/11 05:57:44;;;;;;;1.67;1.40;;;17.80;79.20;;;;;;6215832;23;20001;-74
2023/05/11 06:00:10;;;;;;;2.63;1.35;;;17.80;79.20;;;;;;6215770;23;20000;-73
2023/05/11 06:02:36;;;;;;;2.42;1.30;;;17.90;79.30;;;;;;6214248;23;19997;-74
2023/05/11 06:05:02;;;;;;;6.28;1.52;;;17.90;79.30;;;;;;6215717;23;20004;-74
2023/05/11 06:07:27;;;;;;;4.20;1.02;;;17.90;79.60;;;;;;6212948;23;20020;-74
2023/05/11 06:09:53;;;;;;;7.65;1.38;;;17.90;77.50;;;;;;6210729;23;20007;-74
2023/05/11 06:12:18;;;;;;;2.95;0.85;;;17.90;77.20;;;;;;6209037;23;20471;-73
2023/05/11 06:14:44;;;;;;;5.95;1.40;;;17.90;77.50;;;;;;6213025;23;20004;-73
2023/05/11 06:17:09;;;;;;;3.55;1.20;;;17.90;77.20;;;;;;6211998;23;20000;-73
2023/05/11 06:19:35;;;;;;;3.97;1.38;;;17.90;77.20;;;;;;6215433;23;20027;-75
2023/05/11 06:22:01;;;;;;;8.40;1.48;;;17.80;77.10;;;;;;6215730;23;20498;-74
2023/05/11 06:24:27;;;;;;;4.85;1.40;;;17.80;77.10;;;;;;6213833;23;20024;-75
2023/05/11 06:26:53;;;;;;;4.65;1.10;;;17.90;77.00;;;;;;6215614;23;20046;-76
2023/05/11 06:29:21;;;;;;;3.03;1.38;;;17.80;77.00;;;;;;6214130;23;20001;-74
2023/05/11 06:31:51;;;;;;;4.13;1.10;;;17.80;76.80;;;;;;6215535;23;20000;-75
2023/05/11 06:34:18;;;;;;;5.15;1.38;;;17.80;76.90;;;;;;6214373;23;20437;-75
2023/05/11 06:36:43;;;;;;;3.67;1.30;;;17.80;76.90;;;;;;6215483;23;20001;-75
2023/05/11 06:39:09;;;;;;;7.85;1.40;;;17.80;76.80;;;;;;6215316;23;20008;-75
2023/05/11 06:41:35;;;;;;;2.75;0.98;;;17.80;76.90;;;;;;6215550;23;20004;-75
2023/05/11 06:44:00;;;;;;;3.40;1.17;;;17.80;76.90;;;;;;6215484;23;20005;-75
2023/05/11 06:46:26;;;;;;;4.40;1.55;;;17.70;76.90;;;;;;6215565;23;20006;-75
2023/05/11 06:48:52;;;;;;;2.65;1.30;;;17.70;76.90;;;;;;6215536;23;19997;-74
2023/05/11 06:51:17;;;;;;;5.15;1.48;;;17.80;77.00;;;;;;6215678;23;20058;-76
2023/05/11 06:53:43;;;;;;;6.10;1.90;;;17.80;77.10;;;;;;6213275;23;20032;-75
2023/05/11 06:56:09;;;;;;;7.80;1.80;;;17.80;77.00;;;;;;6215562;23;20005;-76
2023/05/11 06:58:35;;;;;;;6.00;1.42;;;17.80;77.00;;;;;;6214281;23;20004;-75
2023/05/11 07:01:04;;;;;;;4.30;1.80;;;17.80;77.30;;;;;;6212812;23;20437;-76
2023/05/11 07:03:29;;;;;;;5.00;1.50;;;17.80;77.50;;;;;;6212502;23;20005;-76
2023/05/11 07:05:55;;;;;;;4.70;1.80;;;17.80;77.40;;;;;;6213457;23;20001;-76
2023/05/11 07:08:20;;;;;;;3.08;1.60;;;17.80;77.40;;;;;;6210898;23;20011;-75
2023/05/11 07:10:46;;;;;;;8.40;2.03;;;17.80;77.40;;;;;;6213360;23;20000;-76
2023/05/11 07:13:13;;;;;;;7.13;1.80;;;17.80;77.40;;;;;;6212388;23;20001;-76
2023/05/11 07:15:38;;;;;;;8.65;1.88;;;17.80;77.30;;;;;;6212381;23;20452;-76
2023/05/11 07:18:04;;;;;;;10.27;2.35;;;17.80;77.40;;;;;;6212943;23;20001;-75
2023/05/11 07:20:30;;;;;;;8.48;2.35;;;17.80;77.60;;;;;;6214335;23;20031;-76
2023/05/11 07:22:57;;;;;;;5.55;2.17;;;17.80;77.60;;;;;;6188026;23;20410;-76
2023/05/11 07:25:23;;;;;;;4.05;1.73;;;17.80;77.60;;;;;;6214607;23;20384;-76
2023/05/11 07:27:49;;;;;;;7.30;1.80;;;17.80;77.50;;;;;;6214379;23;20007;-76
2023/05/11 07:30:15;;;;;;;4.60;2.13;;;17.80;77.50;;;;;;6214564;23;20072;-76
2023/05/11 07:32:40;;;;;;;6.38;1.80;;;17.80;77.50;;;;;;6214175;23;19996;-76
2023/05/11 07:35:06;;;;;;;7.03;1.90;;;17.80;77.50;;;;;;6214507;23;20001;-76
2023/05/11 07:37:32;;;;;;;9.30;1.90;;;17.80;77.40;;;;;;6214370;23;20329;-75
2023/05/11 07:39:58;;;;;;;5.15;1.90;;;17.80;77.40;;;;;;6214393;23;20079;-75
2023/05/11 07:42:23;;;;;;;6.50;1.98;;;17.80;77.40;;;;;;6214289;23;20000;-76
2023/05/11 07:44:49;;;;;;;4.53;1.73;;;17.80;77.30;;;;;;6212798;23;20008;-76
2023/05/11 07:47:16;;;;;;;5.40;1.60;;;17.80;77.30;;;;;;6214329;23;20075;-75
2023/05/11 07:49:42;;;;;;;7.03;1.90;;;17.80;77.30;;;;;;6214251;23;20051;-76
2023/05/11 07:52:07;;;;;;;6.50;2.15;;;17.80;77.20;;;;;;6214529;23;20008;-75
2023/05/11 07:54:33;;;;;;;6.50;1.85;;;17.70;77.20;;;;;;6212716;23;20083;-75
2023/05/11 07:56:59;;;;;;;6.80;2.83;;;17.80;77.10;;;;;;6212565;23;20039;-75
2023/05/11 07:59:25;;;;;;;6.80;1.73;;;17.70;77.10;;;;;;6214522;23;20098;-76
2023/05/11 08:01:51;;;;;;;6.15;1.95;;;17.70;77.10;;;;;;6214078;23;20449;-75
2023/05/11 08:04:16;;;;;;;4.53;1.50;;;17.70;77.10;;;;;;6214253;23;20323;-75
2023/05/11 08:06:42;;;;;;;3.47;1.30;;;17.70;77.10;;;;;;6213760;23;20008;-76
2023/05/11 08:09:08;;;;;;;4.68;1.90;;;17.70;77.00;;;;;;6214300;23;20436;-76
2023/05/11 08:11:33;;;;;;;7.20;1.63;;;17.70;77.10;;;;;;6213731;23;20005;-76
2023/05/11 08:13:59;;;;;;;4.88;1.77;;;17.80;77.20;;;;;;6189578;23;20027;-75
2023/05/11 08:16:24;;;;;;;4.18;1.90;;;17.70;77.00;;;;;;6216089;23;20008;-75
2023/05/11 08:18:50;;;;;;;4.57;1.90;;;17.70;77.00;;;;;;6214394;23;20387;-76
2023/05/11 08:21:16;;;;;;;4.15;1.60;;;17.70;77.00;;;;;;6215629;23;20015;-76
2023/05/11 08:23:42;;;;;;;4.75;1.45;;;17.70;77.00;;;;;;6215977;23;20001;-75
2023/05/11 08:26:07;;;;;;;6.95;2.05;;;17.70;77.00;;;;;;6214596;23;20076;-76
2023/05/11 08:28:33;;;;;;;4.68;1.55;;;17.70;77.00;;;;;;6214407;23;20035;-75
2023/05/11 08:30:59;;;;;;;4.18;1.73;;;17.70;77.00;;;;;;6215845;23;20464;-75
2023/05/11 08:33:26;;;;;;;2.88;1.38;;;17.70;77.00;;;;;;6216029;23;20012;-75
2023/05/11 08:35:52;;;;;;;3.92;1.50;;;17.70;76.90;;;;;;6189056;23;20060;-76
2023/05/11 08:38:20;;;;;;;4.97;1.95;;;17.70;76.90;;;;;;6215889;23;20004;-76
2023/05/11 08:40:47;;;;;;;5.13;1.98;;;17.70;76.80;;;;;;6215687;23;20399;-75
2023/05/11 08:43:13;;;;;;;3.95;1.60;;;17.70;76.80;;;;;;6214195;23;20000;-75
2023/05/11 08:45:40;;;;;;;5.25;1.50;;;17.70;76.80;;;;;;6215667;23;19997;-76
2023/05/11 08:48:06;;;;;;;4.90;1.67;;;17.70;76.90;;;;;;6189549;23;20441;-76
2023/05/11 08:50:32;;;;;;;4.13;1.42;;;17.70;76.80;;;;;;6213902;23;20000;-76
2023/05/11 08:52:57;;;;;;;3.53;1.50;;;17.70;76.80;;;;;;6189554;23;20010;-75
2023/05/11 08:55:23;;;;;;;5.30;1.67;;;17.70;76.80;;;;;;6215763;23;20032;-76
2023/05/11 08:57:48;;;;;;;3.20;1.48;;;17.70;76.80;;;;;;6189262;23;20445;-75
2023/05/11 09:00:14;;;;;;;2.78;1.30;;;17.70;76.70;;;;;;6214075;23;20001;-76
2023/05/11 09:02:40;;;;;;;5.50;2.17;;;17.70;77.70;;;;;;6214046;23;20055;-75
2023/05/11 09:05:06;;;;;;;5.28;1.70;;;17.70;76.80;;;;;;6189066;23;20000;-76
2023/05/11 09:07:32;;;;;;;3.10;1.52;;;17.70;76.70;;;;;;6213984;23;20075;-75
2023/05/11 09:09:58;;;;;;;6.82;1.42;;;17.70;76.60;;;;;;6213966;23;20491;-76
2023/05/11 09:12:25;;;;;;;4.82;1.38;;;17.70;76.70;;;;;;6214135;23;20032;-75
2023/05/11 09:14:51;;;;;;;3.85;1.33;;;17.70;76.70;;;;;;6189282;23;20047;-76
2023/05/11 09:17:17;;;;;;;5.68;1.35;;;17.70;76.70;;;;;;6215549;23;20008;-76
2023/05/11 09:20:07;;;;;;;3.78;1.15;;;17.70;76.60;;;;;;6215326;23;20004;-75
2023/05/11 09:22:34;;;;;;;2.92;1.50;;;17.70;76.60;;;;;;6215122;23;20083;-75
2023/05/11 09:25:03;;;;;;;3.20;1.30;;;17.70;76.60;;;;;;6189062;23;20318;-76
2023/05/11 09:27:29;;;;;;;3.25;1.30;;;17.70;76.60;;;;;;6214229;23;20001;-75
2023/05/11 09:29:55;;;;;;;4.00;1.40;;;17.60;76.60;;;;;;6215345;23;20006;-75
2023/05/11 09:32:20;;;;;;;3.88;1.50;;;17.70;76.60;;;;;;6215193;23;20078;-76
2023/05/11 09:34:46;;;;;;;3.88;1.45;;;17.70;76.50;;;;;;6215180;23;20005;-75
2023/05/11 09:37:16;;;;;;;3.95;1.63;;;17.70;76.50;;;;;;6215262;23;20112;-75
2023/05/11 09:39:42;;;;;;;3.20;1.45;;;17.70;76.40;;;;;;6189002;23;20000;-76
2023/05/11 09:42:15;;;;;;;7.97;1.50;;;17.70;76.40;;;;;;6213870;23;20005;-75
2023/05/11 09:44:41;;;;;;;5.40;1.50;;;17.70;76.50;;;;;;6215200;23;20001;-76
2023/05/11 09:47:14;;;;;;;4.43;1.10;;;17.70;76.60;;;;;;6213392;23;20075;-75
2023/05/11 09:49:43;;;;;;;6.22;1.70;;;17.70;76.60;;;;;;6188747;23;20377;-75
2023/05/11 09:52:12;;;;;;;4.80;1.42;;;17.70;76.60;;;;;;6189752;23;20005;-75
2023/05/11 09:54:42;;;;;;;5.75;1.50;;;17.70;76.50;;;;;;6215077;23;20008;-75
2023/05/11 09:57:22;;;;;;;3.22;1.30;;;17.70;76.40;;;;;;6213591;23;20005;-76
2023/05/11 09:59:47;;;;;;;3.90;1.50;;;17.70;76.50;;;;;;6190297;23;20078;-76
2023/05/11 10:02:26;;;;;;;4.13;1.50;;;17.70;76.40;;;;;;6215029;23;20001;-76
2023/05/11 10:04:53;;;;;;;3.40;1.20;;;17.70;76.40;;;;;;6188874;23;20011;-76
2023/05/11 10:07:29;;;;;;;4.70;1.58;;;17.60;76.40;;;;;;6213460;23;20087;-75
2023/05/11 10:10:00;;;;;;;6.05;1.65;;;17.70;76.40;;;;;;6213369;23;20036;-76
2023/05/11 10:12:26;;;;;;;4.20;1.48;;;17.70;76.30;;;;;;6213706;23;20001;-75
2023/05/11 10:15:02;;;;;;;3.03;1.23;;;17.70;76.40;;;;;;6213378;23;20005;-75
2023/05/11 10:17:29;;;;;;;3.55;1.45;;;17.70;76.30;;;;;;6214951;23;20079;-75
2023/05/11 10:19:57;;;;;;;3.25;1.45;;;17.60;77.30;;;;;;6213403;23;20448;-76
2023/05/11 10:22:27;;;;;;;3.47;1.27;;;17.70;76.40;;;;;;6214860;23;20451;-76
2023/05/11 10:24:53;;;;;;;3.28;1.40;;;17.70;76.30;;;;;;6188628;23;20008;-76
2023/05/11 10:27:19;;;;;;;3.88;1.10;;;17.70;77.30;;;;;;6213450;23;20028;-76
2023/05/11 10:29:46;;;;;;;3.78;1.20;;;17.70;76.20;;;;;;6188466;23;20027;-75
2023/05/11 10:32:11;;;;;;;2.50;1.10;;;17.70;76.30;;;;;;6188247;23;20005;-76
2023/05/11 10:34:40;;;;;;;3.15;1.23;;;17.60;76.20;;;;;;6188114;23;20035;-76
2023/05/11 10:37:05;;;;;;;5.53;1.60;;;17.70;76.20;;;;;;6214765;23;20444;-76
2023/05/11 10:39:31;;;;;;;2.80;1.20;;;17.70;76.30;;;;;;6214806;23;20015;-75
2023/05/11 10:41:59;;;;;;;2.45;1.00;;;17.70;76.20;;;;;;6213059;23;20077;-76
2023/05/11 10:44:53;;;;;;;4.35;1.35;;;17.70;76.10;;;;;;6214739;23;20076;-76
2023/05/11 10:47:49;;;;;;;2.22;0.90;;;17.70;76.10;;;;;;6202833;23;20008;-76
2023/05/11 10:50:26;;;;;;;2.83;1.30;;;17.70;76.00;;;;;;6214750;23;20000;-76
2023/05/11 10:53:26;;;;;;;2.60;1.17;;;17.70;76.10;;;;;;6213417;23;20448;-76
2023/05/11 10:56:05;;;;;;;3.70;1.35;;;17.70;76.00;;;;;;6213210;23;20004;-75
2023/05/11 10:58:51;;;;;;;1.42;1.00;;;17.70;76.00;;;;;;6214565;23;20008;-76
2023/05/11 11:01:27;;;;;;;3.05;1.00;;;17.70;76.00;;;;;;6214159;23;20009;-76
2023/05/11 11:04:01;;;;;;;4.70;1.88;;;17.70;76.00;;;;;;6213082;23;20001;-75
2023/05/11 11:06:28;;;;;;;3.35;1.40;;;17.70;75.90;;;;;;6214443;23;20008;-76
2023/05/11 11:08:57;;;;;;;3.03;1.10;;;17.60;75.80;;;;;;6213143;23;20029;-76
2023/05/11 11:11:33;;;;;;;2.97;1.10;;;17.70;75.90;;;;;;6213181;23;20456;-75
2023/05/11 11:14:01;;;;;;;3.05;1.10;;;17.60;75.80;;;;;;6212721;23;20005;-75
2023/05/11 11:16:29;;;;;;;2.85;1.20;;;17.70;75.90;;;;;;6214482;23;20000;-76
2023/05/11 11:19:31;;;;;;;1.55;0.90;;;17.70;75.80;;;;;;6214633;23;20005;-75
2023/05/11 11:21:58;;;;;;;2.58;0.85;;;17.70;75.80;;;;;;6214326;23;20004;-75
2023/05/11 11:24:35;;;;;;;3.72;0.98;;;17.70;75.70;;;;;;6214568;23;20080;-75
2023/05/11 11:27:01;;;;;;;2.17;1.05;;;17.70;75.80;;;;;;6214120;23;20000;-75
2023/05/11 11:29:28;;;;;;;4.47;1.30;;;17.70;75.80;;;;;;6187865;23;20326;-76
2023/05/11 11:31:54;;;;;;;2.65;0.98;;;17.70;75.70;;;;;;6214409;23;20001;-75
2023/05/11 11:34:29;;;;;;;3.38;1.13;;;17.70;75.70;;;;;;6212958;23;20012;-75
2023/05/11 11:36:54;;;;;;;3.55;1.20;;;17.70;75.70;;;;;;6214302;23;20071;-76
2023/05/11 11:39:59;;;;;;;2.97;1.10;;;17.70;75.70;;;;;;6214330;23;20074;-76
2023/05/11 11:42:32;;;;;;;2.55;1.10;;;17.70;75.70;;;;;;6069932;23;20006;-75
2023/05/11 11:45:29;;;;;;;2.33;1.20;;;17.70;75.60;;;;;;6069056;23;20007;-75
2023/05/11 11:48:07;;;;;;;2.95;1.30;;;17.70;75.60;;;;;;6095105;23;20553;-76
2023/05/11 11:50:33;;;;;;;2.58;1.08;;;17.70;75.50;;;;;;6095341;23;20081;-76
2023/05/11 11:52:58;;;;;;;2.22;1.10;;;17.70;75.50;;;;;;6095173;23;20511;-76
2023/05/11 11:55:47;;;;;;;1.95;1.00;;;17.70;75.50;;;;;;6071161;23;20057;-75
2023/05/11 11:58:39;;;;;;;1.75;1.08;;;17.70;75.50;;;;;;6070932;23;20427;-75
2023/05/11 12:01:05;;;;;;;2.75;0.95;;;17.70;75.50;;;;;;6070529;23;20010;-75
2023/05/11 12:03:34;;;;;;;1.83;1.00;;;17.70;75.40;;;;;;6047213;23;20347;-75
2023/05/11 12:06:00;;;;;;;3.10;1.30;;;17.70;75.40;;;;;;6071166;23;20447;-75
2023/05/11 12:08:27;;;;;;;3.08;1.33;;;17.70;75.40;;;;;;6047057;23;20007;-75
2023/05/11 12:10:53;;;;;;;1.50;0.85;;;17.70;75.40;;;;;;6071314;23;20014;-76
2023/05/11 12:13:19;;;;;;;2.00;0.82;;;17.70;75.40;;;;;;6094741;23;20093;-76
2023/05/11 12:15:45;;;;;;;2.65;0.90;;;17.70;75.30;;;;;;6106157;23;20071;-75
2023/05/11 12:18:23;;;;;;;2.65;1.00;;;17.70;75.20;;;;;;6214537;23;20028;-75
2023/05/11 12:20:48;;;;;;;2.00;0.98;;;17.70;75.20;;;;;;6216021;23;20005;-76
2023/05/11 12:23:14;;;;;;;3.53;1.10;;;17.70;75.20;;;;;;6189475;23;20432;-75
2023/05/11 12:25:40;;;;;;;1.80;0.73;;;17.70;75.20;;;;;;6215997;23;20039;-76
2023/05/11 12:28:05;;;;;;;1.60;0.95;;;17.70;75.20;;;;;;6215616;23;20032;-75
2023/05/11 12:30:34;;;;;;;2.00;0.90;;;17.70;75.20;;;;;;6215885;23;20025;-75
2023/05/11 12:33:02;;;;;;;1.95;1.10;;;17.70;75.20;;;;;;6215901;23;20062;-76
2023/05/11 12:35:32;;;;;;;3.20;0.90;;;17.70;75.10;;;;;;6190205;23;20437;-76
2023/05/11 12:38:01;;;;;;;3.08;0.90;;;17.70;75.10;;;;;;6189581;23;19997;-75
2023/05/11 12:40:26;;;;;;;3.25;1.05;;;17.70;75.20;;;;;;6189784;23;20007;-75
2023/05/11 12:42:53;;;;;;;5.32;1.10;;;17.70;75.10;;;;;;6189396;23;20076;-76
2023/05/11 12:45:19;;;;;;;1.75;0.98;;;17.70;75.10;;;;;;6215725;23;20494;-76
2023/05/11 12:47:48;;;;;;;3.92;1.20;;;17.70;75.10;;;;;;6214349;23;20373;-75
2023/05/11 12:50:14;;;;;;;1.20;0.90;;;17.70;75.20;;;;;;6189439;23;20004;-76
2023/05/11 12:52:40;;;;;;;1.60;0.90;;;17.70;75.20;;;;;;6214352;23;20004;-75